sensor_id;sensor_type;location;lat;lon;timestamp;pressure;altitude;pressure_sealevel;temperature;humidity
79686;BME280;69153;47.918;11.428;2024-01-16T00:01:27;94444.34;;;-0.20;48.73
79686;BME280;69153;47.918;11.428;2024-01-16T00:03:52;94446.16;;;-0.31;49.87
79686;BME280;69153;47.918;11.428;2024-01-16T00:06:18;94456.25;;;-0.12;49.76
79686;BME280;69153;47.918;11.428;2024-01-16T00:08:44;94442.84;;;-0.21;49.28
79686;BME280;69153;47.918;11.428;2024-01-16T00:11:10;94446.91;;;-0.23;49.31
79686;BME280;69153;47.918;11.428;2024-01-16T00:13:35;94447.63;;;-0.33;49.25
79686;BME280;69153;47.918;11.428;2024-01-16T00:16:04;94445.09;;;-0.19;49.54
79686;BME280;69153;47.918;11.428;2024-01-16T00:18:30;94442.16;;;-0.14;49.06
79686;BME280;69153;47.918;11.428;2024-01-16T00:20:55;94447.44;;;0.07;48.90
79686;BME280;69153;47.918;11.428;2024-01-16T00:23:21;94454.03;;;-0.17;48.85
79686;BME280;69153;47.918;11.428;2024-01-16T00:25:46;94459.63;;;-0.08;49.51
79686;BME280;69153;47.918;11.428;2024-01-16T00:28:11;94464.56;;;0.12;48.56
79686;BME280;69153;47.918;11.428;2024-01-16T00:30:37;94462.38;;;0.24;48.30
79686;BME280;69153;47.918;11.428;2024-01-16T00:33:02;94462.78;;;0.37;48.00
79686;BME280;69153;47.918;11.428;2024-01-16T00:35:28;94463.06;;;0.14;48.25
79686;BME280;69153;47.918;11.428;2024-01-16T00:37:53;94476.84;;;0.15;47.97
79686;BME280;69153;47.918;11.428;2024-01-16T00:40:19;94473.13;;;0.16;47.89
79686;BME280;69153;47.918;11.428;2024-01-16T00:42:44;94479.44;;;0.11;48.66
79686;BME280;69153;47.918;11.428;2024-01-16T00:45:09;94489.84;;;0.15;48.22
79686;BME280;69153;47.918;11.428;2024-01-16T00:47:35;94482.38;;;0.06;48.92
79686;BME280;69153;47.918;11.428;2024-01-16T00:50:00;94487.69;;;0.24;48.57
79686;BME280;69153;47.918;11.428;2024-01-16T00:52:27;94508.13;;;0.22;48.59
79686;BME280;69153;47.918;11.428;2024-01-16T00:54:52;94501.72;;;-0.02;48.87
79686;BME280;69153;47.918;11.428;2024-01-16T00:57:18;94503.28;;;0.20;48.52
79686;BME280;69153;47.918;11.428;2024-01-16T00:59:48;94509.53;;;0.05;48.93
79686;BME280;69153;47.918;11.428;2024-01-16T01:02:14;94503.22;;;0.06;48.62
79686;BME280;69153;47.918;11.428;2024-01-16T01:04:40;94502.09;;;0.00;49.16
79686;BME280;69153;47.918;11.428;2024-01-16T01:07:07;94505.41;;;0.00;48.47
79686;BME280;69153;47.918;11.428;2024-01-16T01:09:33;94505.31;;;-0.21;48.75
79686;BME280;69153;47.918;11.428;2024-01-16T01:11:58;94507.56;;;-0.19;49.19
79686;BME280;69153;47.918;11.428;2024-01-16T01:14:24;94505.66;;;-0.29;49.32
79686;BME280;69153;47.918;11.428;2024-01-16T01:16:51;94506.34;;;-0.40;49.89
79686;BME280;69153;47.918;11.428;2024-01-16T01:19:16;94500.69;;;-0.52;50.99
79686;BME280;69153;47.918;11.428;2024-01-16T01:21:41;94508.44;;;-0.56;50.79
79686;BME280;69153;47.918;11.428;2024-01-16T01:24:07;94507.63;;;-0.67;50.87
79686;BME280;69153;47.918;11.428;2024-01-16T01:26:34;94510.22;;;-0.67;50.04
79686;BME280;69153;47.918;11.428;2024-01-16T01:28:59;94518.22;;;-0.90;51.05
79686;BME280;69153;47.918;11.428;2024-01-16T01:31:25;94519.06;;;-0.79;51.23
79686;BME280;69153;47.918;11.428;2024-01-16T01:33:50;94514.69;;;-0.67;50.03
79686;BME280;69153;47.918;11.428;2024-01-16T01:36:16;94526.16;;;-0.72;50.23
79686;BME280;69153;47.918;11.428;2024-01-16T01:38:41;94523.84;;;-0.84;50.23
79686;BME280;69153;47.918;11.428;2024-01-16T01:41:07;94530.50;;;-0.87;50.48
79686;BME280;69153;47.918;11.428;2024-01-16T01:43:32;94538.69;;;-0.85;50.78
79686;BME280;69153;47.918;11.428;2024-01-16T01:46:14;94549.78;;;-0.88;51.04
79686;BME280;69153;47.918;11.428;2024-01-16T01:48:41;94538.69;;;-0.85;50.39
79686;BME280;69153;47.918;11.428;2024-01-16T01:51:08;94542.47;;;-0.79;50.69
79686;BME280;69153;47.918;11.428;2024-01-16T01:53:35;94544.09;;;-0.60;50.32
79686;BME280;69153;47.918;11.428;2024-01-16T01:56:08;94542.66;;;-0.50;49.76
79686;BME280;69153;47.918;11.428;2024-01-16T01:58:36;94540.81;;;-0.53;49.61
79686;BME280;69153;47.918;11.428;2024-01-16T02:01:05;94543.03;;;-0.52;49.57
79686;BME280;69153;47.918;11.428;2024-01-16T02:03:39;94544.91;;;-0.52;50.15
79686;BME280;69153;47.918;11.428;2024-01-16T02:06:05;94552.50;;;-0.77;50.70
79686;BME280;69153;47.918;11.428;2024-01-16T02:08:31;94554.91;;;-0.54;50.29
79686;BME280;69153;47.918;11.428;2024-01-16T02:10:57;94566.06;;;-0.54;50.15
79686;BME280;69153;47.918;11.428;2024-01-16T02:13:22;94562.81;;;-0.88;50.44
79686;BME280;69153;47.918;11.428;2024-01-16T02:15:49;94555.41;;;-0.86;50.39
79686;BME280;69153;47.918;11.428;2024-01-16T02:18:16;94551.84;;;-0.67;50.35
79686;BME280;69153;47.918;11.428;2024-01-16T02:20:42;94557.75;;;-0.70;50.16
79686;BME280;69153;47.918;11.428;2024-01-16T02:23:10;94554.69;;;-0.83;50.14
79686;BME280;69153;47.918;11.428;2024-01-16T02:25:36;94560.06;;;-0.61;49.82
79686;BME280;69153;47.918;11.428;2024-01-16T02:28:02;94562.66;;;-0.61;49.81
79686;BME280;69153;47.918;11.428;2024-01-16T02:30:28;94562.66;;;-0.61;49.83
79686;BME280;69153;47.918;11.428;2024-01-16T02:32:54;94556.31;;;-0.64;49.71
79686;BME280;69153;47.918;11.428;2024-01-16T02:35:19;94568.56;;;-0.64;49.61
79686;BME280;69153;47.918;11.428;2024-01-16T02:37:45;94581.63;;;-0.61;49.54
79686;BME280;69153;47.918;11.428;2024-01-16T02:40:10;94572.53;;;-0.81;49.91
79686;BME280;69153;47.918;11.428;2024-01-16T02:42:36;94577.19;;;-0.57;49.92
79686;BME280;69153;47.918;11.428;2024-01-16T02:45:04;94571.34;;;-0.43;48.89
79686;BME280;69153;47.918;11.428;2024-01-16T02:47:29;94567.94;;;-0.54;49.07
79686;BME280;69153;47.918;11.428;2024-01-16T02:49:55;94561.16;;;-0.62;49.24
79686;BME280;69153;47.918;11.428;2024-01-16T02:52:20;94563.00;;;-0.63;49.55
79686;BME280;69153;47.918;11.428;2024-01-16T02:54:46;94567.94;;;-0.54;49.26
79686;BME280;69153;47.918;11.428;2024-01-16T02:57:11;94556.47;;;-0.46;48.92
79686;BME280;69153;47.918;11.428;2024-01-16T02:59:37;94561.66;;;-0.46;48.92
79686;BME280;69153;47.918;11.428;2024-01-16T03:02:02;94569.31;;;-0.64;49.27
79686;BME280;69153;47.918;11.428;2024-01-16T03:04:29;94565.78;;;-0.86;50.21
79686;BME280;69153;47.918;11.428;2024-01-16T03:06:54;94568.25;;;-1.00;50.53
79686;BME280;69153;47.918;11.428;2024-01-16T03:09:20;94576.09;;;-1.33;50.93
79686;BME280;69153;47.918;11.428;2024-01-16T03:11:46;94571.34;;;-1.24;51.54
79686;BME280;69153;47.918;11.428;2024-01-16T03:14:12;94579.69;;;-1.08;50.71
79686;BME280;69153;47.918;11.428;2024-01-16T03:16:39;94574.09;;;-1.10;50.65
79686;BME280;69153;47.918;11.428;2024-01-16T03:19:04;94580.97;;;-1.28;51.47
79686;BME280;69153;47.918;11.428;2024-01-16T03:21:30;94568.75;;;-1.24;51.70
79686;BME280;69153;47.918;11.428;2024-01-16T03:23:55;94570.25;;;-1.23;51.27
79686;BME280;69153;47.918;11.428;2024-01-16T03:26:21;94571.25;;;-1.35;51.85
79686;BME280;69153;47.918;11.428;2024-01-16T03:28:46;94577.75;;;-1.18;51.49
79686;BME280;69153;47.918;11.428;2024-01-16T03:31:14;94582.66;;;-1.10;51.09
79686;BME280;69153;47.918;11.428;2024-01-16T03:33:40;94572.91;;;-1.20;51.57
79686;BME280;69153;47.918;11.428;2024-01-16T03:36:08;94568.94;;;-1.06;50.82
79686;BME280;69153;47.918;11.428;2024-01-16T03:38:35;94582.31;;;-1.08;50.80
79686;BME280;69153;47.918;11.428;2024-01-16T03:41:02;94580.19;;;-1.32;51.92
79686;BME280;69153;47.918;11.428;2024-01-16T03:43:29;94575.00;;;-1.29;51.76
79686;BME280;69153;47.918;11.428;2024-01-16T03:45:57;94577.66;;;-1.25;52.00
79686;BME280;69153;47.918;11.428;2024-01-16T03:48:22;94576.66;;;-1.14;51.18
79686;BME280;69153;47.918;11.428;2024-01-16T03:50:48;94572.78;;;-0.93;50.66
79686;BME280;69153;47.918;11.428;2024-01-16T03:53:13;94568.00;;;-0.91;50.55
79686;BME280;69153;47.918;11.428;2024-01-16T03:55:39;94564.75;;;-0.78;50.24
79686;BME280;69153;47.918;11.428;2024-01-16T03:58:04;94566.63;;;-0.78;49.89
79686;BME280;69153;47.918;11.428;2024-01-16T04:00:30;94563.63;;;-0.80;50.22
79686;BME280;69153;47.918;11.428;2024-01-16T04:02:55;94559.44;;;-0.92;50.08
79686;BME280;69153;47.918;11.428;2024-01-16T04:05:21;94553.09;;;-0.91;50.24
79686;BME280;69153;47.918;11.428;2024-01-16T04:07:46;94547.19;;;-0.91;49.96
79686;BME280;69153;47.918;11.428;2024-01-16T04:10:12;94542.09;;;-0.77;49.91
79686;BME280;69153;47.918;11.428;2024-01-16T04:12:37;94543.56;;;-0.80;50.37
79686;BME280;69153;47.918;11.428;2024-01-16T04:15:03;94543.25;;;-0.71;49.64
79686;BME280;69153;47.918;11.428;2024-01-16T04:17:28;94540.31;;;-0.69;49.37
79686;BME280;69153;47.918;11.428;2024-01-16T04:19:54;94541.50;;;-0.60;49.02
79686;BME280;69153;47.918;11.428;2024-01-16T04:22:19;94542.31;;;-0.52;49.38
79686;BME280;69153;47.918;11.428;2024-01-16T04:24:45;94545.31;;;-0.47;48.73
79686;BME280;69153;47.918;11.428;2024-01-16T04:27:11;94544.63;;;-0.40;48.89
79686;BME280;69153;47.918;11.428;2024-01-16T04:29:37;94540.53;;;-0.41;49.07
79686;BME280;69153;47.918;11.428;2024-01-16T04:32:03;94545.34;;;-0.43;49.02
79686;BME280;69153;47.918;11.428;2024-01-16T04:34:29;94551.66;;;-0.44;49.21
79686;BME280;69153;47.918;11.428;2024-01-16T04:36:55;94546.47;;;-0.41;49.07
79686;BME280;69153;47.918;11.428;2024-01-16T04:39:20;94552.78;;;-0.42;47.97
79686;BME280;69153;47.918;11.428;2024-01-16T04:41:48;94555.69;;;-0.50;49.17
79686;BME280;69153;47.918;11.428;2024-01-16T04:44:14;94550.34;;;-0.64;50.02
79686;BME280;69153;47.918;11.428;2024-01-16T04:46:39;94556.97;;;-0.74;50.08
79686;BME280;69153;47.918;11.428;2024-01-16T04:49:05;94547.34;;;-0.70;49.58
79686;BME280;69153;47.918;11.428;2024-01-16T04:51:30;94557.00;;;-0.70;49.68
79686;BME280;69153;47.918;11.428;2024-01-16T04:53:56;94554.03;;;-0.73;50.24
79686;BME280;69153;47.918;11.428;2024-01-16T04:56:21;94556.94;;;-0.78;49.82
79686;BME280;69153;47.918;11.428;2024-01-16T04:58:47;94556.56;;;-0.80;49.99
79686;BME280;69153;47.918;11.428;2024-01-16T05:01:14;94552.78;;;-0.86;49.88
79686;BME280;69153;47.918;11.428;2024-01-16T05:03:39;94551.56;;;-0.99;50.59
79686;BME280;69153;47.918;11.428;2024-01-16T05:06:05;94553.75;;;-1.01;49.94
79686;BME280;69153;47.918;11.428;2024-01-16T05:08:37;94550.28;;;-1.16;50.70
79686;BME280;69153;47.918;11.428;2024-01-16T05:11:02;94547.66;;;-1.53;51.88
79686;BME280;69153;47.918;11.428;2024-01-16T05:13:27;94550.06;;;-1.70;52.33
79686;BME280;69153;47.918;11.428;2024-01-16T05:15:53;94549.28;;;-1.74;52.45
79686;BME280;69153;47.918;11.428;2024-01-16T05:18:18;94547.31;;;-1.85;52.84
79686;BME280;69153;47.918;11.428;2024-01-16T05:20:44;94542.00;;;-1.95;53.29
79686;BME280;69153;47.918;11.428;2024-01-16T05:23:10;94551.78;;;-2.11;53.86
79686;BME280;69153;47.918;11.428;2024-01-16T05:25:35;94544.00;;;-2.11;53.79
79686;BME280;69153;47.918;11.428;2024-01-16T05:28:01;94556.09;;;-2.19;54.13
79686;BME280;69153;47.918;11.428;2024-01-16T05:30:26;94557.19;;;-2.20;54.46
79686;BME280;69153;47.918;11.428;2024-01-16T05:32:51;94559.78;;;-2.24;54.69
79686;BME280;69153;47.918;11.428;2024-01-16T05:35:17;94567.63;;;-2.17;54.18
79686;BME280;69153;47.918;11.428;2024-01-16T05:37:43;94553.13;;;-2.21;54.08
79686;BME280;69153;47.918;11.428;2024-01-16T05:40:08;94551.78;;;-2.38;54.78
79686;BME280;69153;47.918;11.428;2024-01-16T05:42:34;94561.66;;;-2.47;54.76
79686;BME280;69153;47.918;11.428;2024-01-16T05:45:01;94560.16;;;-2.48;54.60
79686;BME280;69153;47.918;11.428;2024-01-16T05:47:26;94562.28;;;-2.54;55.09
79686;BME280;69153;47.918;11.428;2024-01-16T05:49:54;94565.69;;;-2.49;55.25
79686;BME280;69153;47.918;11.428;2024-01-16T05:52:19;94564.00;;;-2.38;54.66
79686;BME280;69153;47.918;11.428;2024-01-16T05:54:45;94556.28;;;-2.35;54.52
79686;BME280;69153;47.918;11.428;2024-01-16T05:57:10;94559.28;;;-2.56;55.10
79686;BME280;69153;47.918;11.428;2024-01-16T05:59:36;94562.75;;;-2.71;55.49
79686;BME280;69153;47.918;11.428;2024-01-16T06:02:01;94552.63;;;-2.79;55.66
79686;BME280;69153;47.918;11.428;2024-01-16T06:04:27;94555.63;;;-2.77;55.73
79686;BME280;69153;47.918;11.428;2024-01-16T06:06:52;94562.94;;;-2.60;55.47
79686;BME280;69153;47.918;11.428;2024-01-16T06:09:18;94556.34;;;-2.54;55.10
79686;BME280;69153;47.918;11.428;2024-01-16T06:11:43;94556.69;;;-2.56;55.35
79686;BME280;69153;47.918;11.428;2024-01-16T06:14:09;94558.50;;;-2.60;55.95
79686;BME280;69153;47.918;11.428;2024-01-16T06:16:37;94556.59;;;-2.63;55.81
79686;BME280;69153;47.918;11.428;2024-01-16T06:19:02;94555.50;;;-2.62;55.99
79686;BME280;69153;47.918;11.428;2024-01-16T06:21:28;94555.38;;;-2.69;55.99
79686;BME280;69153;47.918;11.428;2024-01-16T06:23:53;94553.03;;;-2.77;56.51
79686;BME280;69153;47.918;11.428;2024-01-16T06:26:18;94560.88;;;-2.74;56.30
79686;BME280;69153;47.918;11.428;2024-01-16T06:28:44;94553.78;;;-2.77;56.43
79686;BME280;69153;47.918;11.428;2024-01-16T06:31:10;94553.78;;;-2.77;56.52
79686;BME280;69153;47.918;11.428;2024-01-16T06:33:35;94557.06;;;-2.80;56.63
79686;BME280;69153;47.918;11.428;2024-01-16T06:36:02;94548.66;;;-2.73;56.30
79686;BME280;69153;47.918;11.428;2024-01-16T06:38:31;94551.34;;;-2.66;55.92
79686;BME280;69153;47.918;11.428;2024-01-16T06:40:57;94548.16;;;-2.56;55.83
79686;BME280;69153;47.918;11.428;2024-01-16T06:43:23;94547.19;;;-2.48;55.60
79686;BME280;69153;47.918;11.428;2024-01-16T06:45:49;94552.41;;;-2.44;55.37
79686;BME280;69153;47.918;11.428;2024-01-16T06:48:14;94548.38;;;-2.42;54.83
79686;BME280;69153;47.918;11.428;2024-01-16T06:50:41;94556.06;;;-2.49;55.38
79686;BME280;69153;47.918;11.428;2024-01-16T06:53:06;94549.03;;;-2.48;55.58
79686;BME280;69153;47.918;11.428;2024-01-16T06:55:32;94546.53;;;-2.41;54.75
79686;BME280;69153;47.918;11.428;2024-01-16T06:57:58;94558.50;;;-2.33;54.48
79686;BME280;69153;47.918;11.428;2024-01-16T07:00:23;94560.75;;;-2.32;54.64
79686;BME280;69153;47.918;11.428;2024-01-16T07:02:52;94559.78;;;-2.24;54.32
79686;BME280;69153;47.918;11.428;2024-01-16T07:05:17;94558.66;;;-2.23;54.63
79686;BME280;69153;47.918;11.428;2024-01-16T07:07:43;94553.72;;;-2.31;54.97
79686;BME280;69153;47.918;11.428;2024-01-16T07:10:08;94552.63;;;-2.30;55.08
79686;BME280;69153;47.918;11.428;2024-01-16T07:12:39;94551.59;;;-2.26;54.92
79686;BME280;69153;47.918;11.428;2024-01-16T07:15:05;94553.50;;;-2.19;54.36
79686;BME280;69153;47.918;11.428;2024-01-16T07:17:31;94543.66;;;-2.10;54.06
79686;BME280;69153;47.918;11.428;2024-01-16T07:19:56;94557.91;;;-2.23;54.57
79686;BME280;69153;47.918;11.428;2024-01-16T07:22:23;94561.28;;;-2.19;53.71
79686;BME280;69153;47.918;11.428;2024-01-16T07:24:49;94569.25;;;-2.08;53.75
79686;BME280;69153;47.918;11.428;2024-01-16T07:27:14;94560.75;;;-2.05;53.08
79686;BME280;69153;47.918;11.428;2024-01-16T07:29:40;94560.84;;;-1.98;53.72
79686;BME280;69153;47.918;11.428;2024-01-16T07:32:07;94557.41;;;-1.76;52.59
79686;BME280;69153;47.918;11.428;2024-01-16T07:34:32;94556.97;;;-1.82;53.08
79686;BME280;69153;47.918;11.428;2024-01-16T07:36:58;94568.19;;;-1.74;53.02
79686;BME280;69153;47.918;11.428;2024-01-16T07:39:23;94572.47;;;-1.59;52.93
79686;BME280;69153;47.918;11.428;2024-01-16T07:41:49;94567.19;;;-1.32;52.15
79686;BME280;69153;47.918;11.428;2024-01-16T07:44:14;94567.28;;;-1.55;52.67
79686;BME280;69153;47.918;11.428;2024-01-16T07:46:40;94553.38;;;-1.73;53.20
79686;BME280;69153;47.918;11.428;2024-01-16T07:49:05;94559.59;;;-1.48;52.94
79686;BME280;69153;47.918;11.428;2024-01-16T07:51:31;94552.31;;;-1.35;52.59
79686;BME280;69153;47.918;11.428;2024-01-16T07:54:07;94559.13;;;-1.24;51.80
79686;BME280;69153;47.918;11.428;2024-01-16T07:56:34;94557.31;;;-1.16;52.39
79686;BME280;69153;47.918;11.428;2024-01-16T07:58:59;94542.00;;;-0.91;51.57
79686;BME280;69153;47.918;11.428;2024-01-16T08:01:25;94552.03;;;-0.86;51.34
79686;BME280;69153;47.918;11.428;2024-01-16T08:03:50;94544.72;;;-0.74;51.28
79686;BME280;69153;47.918;11.428;2024-01-16T08:06:16;94542.69;;;-0.47;51.12
79686;BME280;69153;47.918;11.428;2024-01-16T08:08:41;94549.16;;;-0.30;50.79
79686;BME280;69153;47.918;11.428;2024-01-16T08:11:07;94548.03;;;-0.25;50.93
79686;BME280;69153;47.918;11.428;2024-01-16T08:13:32;94545.44;;;-0.25;50.37
79686;BME280;69153;47.918;11.428;2024-01-16T08:15:58;94554.19;;;-0.51;51.69
79686;BME280;69153;47.918;11.428;2024-01-16T08:18:24;94550.19;;;-0.42;51.77
79686;BME280;69153;47.918;11.428;2024-01-16T08:20:49;94554.63;;;-0.39;51.84
79686;BME280;69153;47.918;11.428;2024-01-16T08:23:15;94545.59;;;-0.04;51.14
79686;BME280;69153;47.918;11.428;2024-01-16T08:25:40;94555.78;;;0.26;50.36
79686;BME280;69153;47.918;11.428;2024-01-16T08:28:06;94549.94;;;0.50;50.01
79686;BME280;69153;47.918;11.428;2024-01-16T08:30:31;94546.31;;;0.97;48.78
79686;BME280;69153;47.918;11.428;2024-01-16T08:32:57;94542.28;;;1.39;47.43
79686;BME280;69153;47.918;11.428;2024-01-16T08:35:22;94543.75;;;1.75;46.96
79686;BME280;69153;47.918;11.428;2024-01-16T08:37:48;94539.97;;;2.01;46.20
79686;BME280;69153;47.918;11.428;2024-01-16T08:40:15;94549.19;;;2.34;45.13
79686;BME280;69153;47.918;11.428;2024-01-16T08:42:40;94545.78;;;2.48;45.04
79686;BME280;69153;47.918;11.428;2024-01-16T08:45:06;94542.59;;;2.92;43.77
79686;BME280;69153;47.918;11.428;2024-01-16T08:47:31;94543.75;;;3.46;43.34
79686;BME280;69153;47.918;11.428;2024-01-16T08:49:57;94537.06;;;3.86;41.69
79686;BME280;69153;47.918;11.428;2024-01-16T08:52:22;94530.56;;;4.36;41.41
79686;BME280;69153;47.918;11.428;2024-01-16T08:54:48;94535.19;;;4.24;41.28
79686;BME280;69153;47.918;11.428;2024-01-16T08:57:13;94529.25;;;4.17;41.41
79686;BME280;69153;47.918;11.428;2024-01-16T08:59:41;94526.72;;;4.44;41.10
79686;BME280;69153;47.918;11.428;2024-01-16T09:02:07;94523.84;;;4.31;41.06
79686;BME280;69153;47.918;11.428;2024-01-16T09:04:32;94518.03;;;4.50;40.60
79686;BME280;69153;47.918;11.428;2024-01-16T09:06:59;94521.53;;;4.71;39.88
79686;BME280;69153;47.918;11.428;2024-01-16T09:09:24;94514.88;;;4.28;40.99
79686;BME280;69153;47.918;11.428;2024-01-16T09:11:50;94513.75;;;3.95;40.89
79686;BME280;69153;47.918;11.428;2024-01-16T09:14:15;94508.75;;;3.71;41.92
79686;BME280;69153;47.918;11.428;2024-01-16T09:16:41;94504.50;;;3.84;41.73
79686;BME280;69153;47.918;11.428;2024-01-16T09:19:07;94501.22;;;3.76;41.71
79686;BME280;69153;47.918;11.428;2024-01-16T09:21:34;94505.78;;;3.65;41.99
79686;BME280;69153;47.918;11.428;2024-01-16T09:24:00;94508.84;;;3.60;41.91
79686;BME280;69153;47.918;11.428;2024-01-16T09:26:25;94510.28;;;3.23;42.37
79686;BME280;69153;47.918;11.428;2024-01-16T09:28:51;94508.16;;;3.04;43.51
79686;BME280;69153;47.918;11.428;2024-01-16T09:31:16;94514.97;;;2.91;42.82
79686;BME280;69153;47.918;11.428;2024-01-16T09:33:42;94507.94;;;2.77;43.85
79686;BME280;69153;47.918;11.428;2024-01-16T09:36:08;94510.97;;;2.69;43.99
79686;BME280;69153;47.918;11.428;2024-01-16T09:38:34;94515.03;;;2.80;44.18
79686;BME280;69153;47.918;11.428;2024-01-16T09:41:00;94519.50;;;2.80;44.02
79686;BME280;69153;47.918;11.428;2024-01-16T09:43:29;94509.00;;;2.87;43.92
79686;BME280;69153;47.918;11.428;2024-01-16T09:46:00;94508.53;;;2.99;43.95
79686;BME280;69153;47.918;11.428;2024-01-16T09:48:28;94495.72;;;3.19;43.23
79686;BME280;69153;47.918;11.428;2024-01-16T09:50:55;94495.16;;;3.42;43.09
79686;BME280;69153;47.918;11.428;2024-01-16T09:53:21;94489.66;;;3.74;42.56
79686;BME280;69153;47.918;11.428;2024-01-16T09:55:49;94492.16;;;3.84;41.96
79686;BME280;69153;47.918;11.428;2024-01-16T09:58:19;94493.91;;;3.94;41.49
79686;BME280;69153;47.918;11.428;2024-01-16T10:00:46;94482.66;;;3.98;41.73
79686;BME280;69153;47.918;11.428;2024-01-16T10:03:13;94484.31;;;3.84;42.23
79686;BME280;69153;47.918;11.428;2024-01-16T10:05:43;94481.16;;;3.63;42.59
79686;BME280;69153;47.918;11.428;2024-01-16T10:08:09;94474.44;;;3.58;42.47
79686;BME280;69153;47.918;11.428;2024-01-16T10:10:35;94470.69;;;3.59;42.95
79686;BME280;69153;47.918;11.428;2024-01-16T10:13:00;94468.00;;;3.66;42.67
79686;BME280;69153;47.918;11.428;2024-01-16T10:15:26;94463.47;;;3.70;42.54
79686;BME280;69153;47.918;11.428;2024-01-16T10:17:52;94466.75;;;3.78;42.19
79686;BME280;69153;47.918;11.428;2024-01-16T10:20:32;94467.06;;;3.87;42.41
79686;BME280;69153;47.918;11.428;2024-01-16T10:22:58;94464.06;;;3.88;42.18
79686;BME280;69153;47.918;11.428;2024-01-16T10:25:24;94465.97;;;3.81;41.97
79686;BME280;69153;47.918;11.428;2024-01-16T10:28:03;94468.97;;;3.83;42.45
79686;BME280;69153;47.918;11.428;2024-01-16T10:30:29;94458.47;;;3.83;42.54
79686;BME280;69153;47.918;11.428;2024-01-16T10:32:55;94462.97;;;3.82;42.16
79686;BME280;69153;47.918;11.428;2024-01-16T10:35:20;94452.03;;;3.91;42.26
79686;BME280;69153;47.918;11.428;2024-01-16T10:37:48;94463.88;;;4.03;42.25
79686;BME280;69153;47.918;11.428;2024-01-16T10:40:21;94450.84;;;3.95;42.25
79686;BME280;69153;47.918;11.428;2024-01-16T10:43:01;94448.56;;;4.01;42.20
79686;BME280;69153;47.918;11.428;2024-01-16T10:45:27;94451.06;;;4.12;41.97
79686;BME280;69153;47.918;11.428;2024-01-16T10:48:03;94440.88;;;4.48;41.46
79686;BME280;69153;47.918;11.428;2024-01-16T10:50:30;94429.94;;;4.80;40.57
79686;BME280;69153;47.918;11.428;2024-01-16T10:52:59;94424.50;;;5.17;40.57
79686;BME280;69153;47.918;11.428;2024-01-16T10:55:28;94426.16;;;5.74;39.32
79686;BME280;69153;47.918;11.428;2024-01-16T10:57:55;94424.72;;;5.93;38.52
79686;BME280;69153;47.918;11.428;2024-01-16T11:00:23;94415.03;;;5.86;38.14
79686;BME280;69153;47.918;11.428;2024-01-16T11:03:06;94412.84;;;5.61;37.71
79686;BME280;69153;47.918;11.428;2024-01-16T11:05:33;94416.03;;;5.53;38.16
79686;BME280;69153;47.918;11.428;2024-01-16T11:08:00;94421.13;;;5.40;38.70
79686;BME280;69153;47.918;11.428;2024-01-16T11:10:31;94413.44;;;5.06;39.30
79686;BME280;69153;47.918;11.428;2024-01-16T11:13:00;94415.66;;;4.81;39.59
79686;BME280;69153;47.918;11.428;2024-01-16T11:15:28;94405.09;;;4.61;40.57
79686;BME280;69153;47.918;11.428;2024-01-16T11:17:56;94415.06;;;4.43;40.82
79686;BME280;69153;47.918;11.428;2024-01-16T11:20:27;94406.69;;;4.28;40.55
79686;BME280;69153;47.918;11.428;2024-01-16T11:22:54;94413.81;;;4.27;40.31
79686;BME280;69153;47.918;11.428;2024-01-16T11:25:31;94401.75;;;4.30;40.98
79686;BME280;69153;47.918;11.428;2024-01-16T11:28:16;94401.13;;;4.22;40.80
79686;BME280;69153;47.918;11.428;2024-01-16T11:30:44;94400.25;;;4.59;40.79
79686;BME280;69153;47.918;11.428;2024-01-16T11:33:42;94390.66;;;4.99;40.61
79686;BME280;69153;47.918;11.428;2024-01-16T11:39:17;94377.59;;;5.19;39.03
79686;BME280;69153;47.918;11.428;2024-01-16T11:41:59;94382.25;;;5.31;38.79
79686;BME280;69153;47.918;11.428;2024-01-16T11:47:04;94375.53;;;5.50;37.94
79686;BME280;69153;47.918;11.428;2024-01-16T11:49:29;94378.72;;;5.81;37.39
79686;BME280;69153;47.918;11.428;2024-01-16T11:51:57;94373.13;;;5.99;37.77
79686;BME280;69153;47.918;11.428;2024-01-16T11:54:23;94369.50;;;6.29;37.42
79686;BME280;69153;47.918;11.428;2024-01-16T11:57:12;94369.16;;;6.47;37.44
79686;BME280;69153;47.918;11.428;2024-01-16T11:59:58;94357.94;;;6.42;36.50
79686;BME280;69153;47.918;11.428;2024-01-16T12:02:41;94359.13;;;6.74;36.49
79686;BME280;69153;47.918;11.428;2024-01-16T12:05:11;94357.41;;;6.67;36.25
79686;BME280;69153;47.918;11.428;2024-01-16T12:07:50;94361.50;;;6.36;36.79
79686;BME280;69153;47.918;11.428;2024-01-16T12:10:20;94354.72;;;5.99;37.50
79686;BME280;69153;47.918;11.428;2024-01-16T12:12:47;94355.94;;;5.74;37.76
79686;BME280;69153;47.918;11.428;2024-01-16T12:15:17;94355.69;;;5.69;38.07
79686;BME280;69153;47.918;11.428;2024-01-16T12:18:00;94364.75;;;5.64;37.88
79686;BME280;69153;47.918;11.428;2024-01-16T12:20:28;94355.53;;;5.56;37.80
79686;BME280;69153;47.918;11.428;2024-01-16T12:22:57;94344.19;;;5.59;38.32
79686;BME280;69153;47.918;11.428;2024-01-16T12:25:25;94333.22;;;5.64;38.68
79686;BME280;69153;47.918;11.428;2024-01-16T12:28:03;94330.78;;;5.73;38.47
79686;BME280;69153;47.918;11.428;2024-01-16T12:30:35;94320.63;;;5.75;37.88
79686;BME280;69153;47.918;11.428;2024-01-16T12:35:36;94323.38;;;5.49;38.13
79686;BME280;69153;47.918;11.428;2024-01-16T12:38:04;94311.16;;;4.99;39.44
79686;BME280;69153;47.918;11.428;2024-01-16T12:40:48;94304.13;;;4.46;40.53
79686;BME280;69153;47.918;11.428;2024-01-16T12:43:16;94299.69;;;4.43;41.15
79686;BME280;69153;47.918;11.428;2024-01-16T12:45:42;94301.44;;;3.99;41.81
79686;BME280;69153;47.918;11.428;2024-01-16T12:48:09;94297.06;;;3.62;41.58
79686;BME280;69153;47.918;11.428;2024-01-16T12:50:34;94294.44;;;3.62;42.67
79686;BME280;69153;47.918;11.428;2024-01-16T12:53:08;94291.06;;;3.92;42.33
79686;BME280;69153;47.918;11.428;2024-01-16T12:55:36;94288.44;;;4.19;40.47
79686;BME280;69153;47.918;11.428;2024-01-16T12:58:19;94279.78;;;4.68;39.18
79686;BME280;69153;47.918;11.428;2024-01-16T13:00:48;94283.91;;;4.93;38.26
79686;BME280;69153;47.918;11.428;2024-01-16T13:03:21;94283.78;;;5.20;38.72